Stanton, Texas
Current Conditions -  °F | °C
As of 9:55 PM on Saturday 24 Jan 2015 (Local Time) from KBPG Reporting Station
Clear Clear  
Wind Chill: 38°   Ceiling: Unl
Heat Index: 43°   Visibility: 10mi
Dew Point: 32°   Wind: 10mph
Humidity: 65%   Direction: 180°S
Pressure: 30.06"   Gusts: NA
Location:  32.13°N, 101.79°W
Report Text: KBPG 250355Z AUTO 18009KT 10SM CLR 06/00 A3006 RMK AO2 T00630001
Loading
Personal Weather Stations






























Interactive Weather Map New forecast layout! Learn more

10-Day Weather Forecast

Advertisements
Track Severe Weather on mobile